»·PEaware :: AAL985 KASE-KPHX

AAL985 :: KASE-KPHX

FLIGHT INFORMATION

Flight Status: Arrived
Operator:
American Airlines
More flights by this operator :: More flights under this callsign
Pilot: Max W. (2591)
Aircraft: BOEING 737-800
(B738)
More flights by this aircraft type
Origin: KASE Aspen-Pitkin Co/Sardy
United States
Destination: KPHX Phoenix Sky Harbor Intl
United States
More flights between these airports :: More routes between these airports
Route: +PITKN4 JNC GUP EAGUL6
File this flight plan on PilotEdge
Remarks:
Altitude:
(Current/Filed)
36,000ft
Speed:
(Current/Filed)
450kts
Departed: 12-Apr-18 07:54 PM
Arrived: 12-Apr-18 09:14 PM
Distance/Time
Traveled:
426nm/1:20
Distance/Time
To Go:
Arrived

Flight Plot

Page will automatically refresh every two minutes.

Flight plan parsing failed; only flown route is shown


Map Options




Map Legend


Flown Route
Filed Route
Departure Airport
Arrival Airport
Navaid (VOR, NDB)
Fix

Horizontal Profiles

Position Reports

Time Latitude Longitude Heading Altitude Ground
Speed
12-Apr-18 19:43 39.220151 -106.865493 159 7744ft 0kts
12-Apr-18 19:44 39.220151 -106.865493 159 7744ft 0kts
12-Apr-18 19:45 39.220151 -106.865493 159 7744ft 0kts
12-Apr-18 19:46 39.220151 -106.865493 159 7744ft 0kts
12-Apr-18 19:47 39.220151 -106.865493 159 7744ft 0kts
12-Apr-18 19:48 39.220151 -106.865493 159 7744ft 0kts
12-Apr-18 19:49 39.220151 -106.865493 159 7744ft 0kts
12-Apr-18 19:50 39.220151 -106.865492 159 7744ft 0kts
12-Apr-18 19:51 39.218176 -106.865272 159 7744ft 27kts
12-Apr-18 19:52 39.211765 -106.863308 303 7744ft 12kts
12-Apr-18 19:53 39.240205 -106.877104 337 8225ft 177kts
12-Apr-18 19:54 39.286582 -106.907281 302 9866ft 226kts
12-Apr-18 19:55 39.321676 -106.988463 295 11606ft 281kts
12-Apr-18 19:56 39.362030 -107.089889 296 12996ft 352kts
12-Apr-18 19:57 39.377766 -107.213427 258 15761ft 363kts
12-Apr-18 19:58 39.315805 -107.307707 198 18585ft 371kts
12-Apr-18 19:59 39.217128 -107.349671 200 21102ft 376kts
12-Apr-18 20:00 39.116763 -107.392836 199 23309ft 382kts
12-Apr-18 20:01 39.015092 -107.436249 199 25165ft 389kts
12-Apr-18 20:02 38.910680 -107.477977 198 26771ft 397kts
12-Apr-18 20:03 38.804283 -107.521730 199 28172ft 404kts
12-Apr-18 20:04 38.698502 -107.566191 200 29964ft 396kts
12-Apr-18 20:05 38.594079 -107.610201 199 31417ft 395kts
12-Apr-18 20:06 38.489143 -107.653215 199 32753ft 394kts
12-Apr-18 20:07 38.385025 -107.696989 201 33821ft 397kts
12-Apr-18 20:08 38.280238 -107.741016 200 33837ft 396kts
12-Apr-18 20:09 38.174376 -107.784892 200 33850ft 403kts
12-Apr-18 20:10 38.067383 -107.827035 200 33866ft 403kts
12-Apr-18 20:11 37.960682 -107.870046 201 33879ft 403kts
12-Apr-18 20:12 37.853250 -107.911929 201 33877ft 402kts
12-Apr-18 20:13 37.746548 -107.954470 200 33868ft 402kts
12-Apr-18 20:14 37.639761 -107.995939 200 33851ft 402kts
12-Apr-18 20:15 37.532894 -108.039957 202 33831ft 404kts
12-Apr-18 20:16 37.426149 -108.084294 202 33813ft 407kts
12-Apr-18 20:17 37.317539 -108.129394 202 33800ft 412kts
12-Apr-18 20:18 37.209761 -108.173952 202 33778ft 404kts
12-Apr-18 20:19 37.103070 -108.217944 203 33767ft 404kts
12-Apr-18 20:20 36.995914 -108.261966 203 33753ft 404kts
12-Apr-18 20:21 36.889177 -108.305676 203 33737ft 404kts
12-Apr-18 20:22 36.782508 -108.349227 203 33725ft 404kts
12-Apr-18 20:23 36.682056 -108.406568 222 33729ft 392kts
12-Apr-18 20:24 36.600219 -108.495667 223 33740ft 391kts
12-Apr-18 20:25 36.518209 -108.584980 223 33754ft 391kts
12-Apr-18 20:26 36.436297 -108.673864 223 33767ft 391kts
12-Apr-18 20:27 36.354627 -108.763322 223 33783ft 392kts
12-Apr-18 20:28 36.272580 -108.853003 223 33797ft 393kts
12-Apr-18 20:29 36.190304 -108.942176 223 33812ft 394kts
12-Apr-18 20:30 36.107700 -109.031250 223 33823ft 395kts
12-Apr-18 20:31 36.024541 -109.120592 223 33831ft 395kts
12-Apr-18 20:32 35.941613 -109.209378 224 33836ft 392kts
12-Apr-18 20:33 35.858966 -109.297656 224 33840ft 394kts
12-Apr-18 20:34 35.775764 -109.386262 224 33843ft 394kts
12-Apr-18 20:35 35.692646 -109.474543 224 33849ft 395kts
12-Apr-18 20:36 35.609047 -109.563065 224 33853ft 396kts
12-Apr-18 20:37 35.525610 -109.651184 224 33858ft 396kts
12-Apr-18 20:38 35.441838 -109.739419 224 33878ft 396kts
12-Apr-18 20:39 35.358475 -109.826992 224 33884ft 395kts
12-Apr-18 20:40 35.275118 -109.914329 224 33888ft 394kts
12-Apr-18 20:41 35.191616 -110.001590 224 33895ft 393kts
12-Apr-18 20:42 35.107766 -110.089249 225 33918ft 399kts
12-Apr-18 20:43 35.023678 -110.176902 225 33921ft 397kts
12-Apr-18 20:44 34.939390 -110.264388 225 33922ft 397kts
12-Apr-18 20:45 34.855140 -110.351611 226 33922ft 397kts
12-Apr-18 20:46 34.771223 -110.438302 226 33925ft 396kts
12-Apr-18 20:47 34.687532 -110.524578 226 31556ft 395kts
12-Apr-18 20:48 34.604486 -110.610283 227 29056ft 383kts
12-Apr-18 20:49 34.525176 -110.692661 227 26882ft 368kts
12-Apr-18 20:50 34.447518 -110.770948 226 24765ft 356kts
12-Apr-18 20:51 34.372248 -110.845319 226 22736ft 343kts
12-Apr-18 20:52 34.299523 -110.917484 225 20754ft 333kts
12-Apr-18 20:53 34.230905 -110.985157 225 19491ft 291kts
12-Apr-18 20:54 34.169659 -111.045431 225 18228ft 282kts
12-Apr-18 20:55 34.111756 -111.106741 232 17512ft 278kts
12-Apr-18 20:56 34.059424 -111.175307 232 16401ft 276kts
12-Apr-18 20:57 34.006980 -111.242923 232 15249ft 277kts
12-Apr-18 20:58 33.953627 -111.311251 232 14070ft 283kts
12-Apr-18 20:59 33.898967 -111.380747 231 12853ft 280kts
12-Apr-18 21:00 33.840842 -111.438874 221 11704ft 269kts
12-Apr-18 21:01 33.782233 -111.488962 221 10599ft 245kts
12-Apr-18 21:02 33.728920 -111.534761 222 9599ft 230kts
12-Apr-18 21:03 33.676579 -111.579647 222 8618ft 230kts
12-Apr-18 21:04 33.623714 -111.624531 220 7577ft 233kts
12-Apr-18 21:05 33.572872 -111.667072 221 6560ft 220kts
12-Apr-18 21:06 33.522271 -111.709740 221 5522ft 222kts
12-Apr-18 21:07 33.491643 -111.763167 246 4584ft 180kts
12-Apr-18 21:08 33.468247 -111.817097 245 3613ft 172kts
12-Apr-18 21:09 33.449145 -111.861008 246 3270ft 146kts
12-Apr-18 21:10 33.440652 -111.906667 271 2528ft 139kts
12-Apr-18 21:11 33.440846 -111.952668 271 1787ft 139kts
12-Apr-18 21:12 33.440813 -111.991462 270 1193ft 137kts
12-Apr-18 21:13 33.439109 -112.011227 134 1143ft 11kts
12-Apr-18 21:14 33.438908 -112.002615 105 1143ft 28kts
12-Apr-18 21:15 33.438311 -112.001974 178 1143ft 0kts

Navigation Log

Ident Type
Flight plan parsing failed, navigation log unavailable